createdAt,value
2023-08-21T00:02:00.542Z,6.93
2023-08-21T00:04:27.700Z,7.22
2023-08-21T00:06:54.941Z,6.72
2023-08-21T00:09:22.079Z,6.60
2023-08-21T00:11:49.150Z,6.45
2023-08-21T00:14:16.258Z,7.60
2023-08-21T00:16:43.467Z,6.57
2023-08-21T00:19:10.621Z,7.05
2023-08-21T00:21:37.713Z,6.47
2023-08-21T00:24:18.770Z,6.40
2023-08-21T00:26:46.316Z,7.05
2023-08-21T00:29:14.171Z,6.97
2023-08-21T00:31:41.536Z,7.38
2023-08-21T00:34:08.666Z,6.80
2023-08-21T00:36:36.678Z,7.40
2023-08-21T00:39:03.799Z,6.93
2023-08-21T00:41:31.041Z,7.15
2023-08-21T00:43:58.217Z,6.97
2023-08-21T00:46:26.300Z,7.75
2023-08-21T00:48:53.964Z,7.45
2023-08-21T00:51:21.457Z,7.35
2023-08-21T00:53:49.136Z,7.03
2023-08-21T00:56:16.679Z,7.45
2023-08-21T00:58:44.488Z,8.07
2023-08-21T01:01:13.057Z,7.88
2023-08-21T01:03:40.606Z,8.73
2023-08-21T01:06:07.702Z,9.43
2023-08-21T01:08:50.148Z,9.75
2023-08-21T01:11:39.717Z,9.00
2023-08-21T01:14:24.736Z,9.68
2023-08-21T01:16:56.227Z,8.73
2023-08-21T01:19:33.680Z,9.35
2023-08-21T01:22:01.997Z,8.43
2023-08-21T01:24:29.514Z,8.90
2023-08-21T01:26:56.900Z,7.95
2023-08-21T01:29:24.114Z,7.78
2023-08-21T01:32:05.907Z,7.82
2023-08-21T01:34:34.615Z,7.68
2023-08-21T01:37:02.806Z,7.65
2023-08-21T01:39:31.006Z,7.38
2023-08-21T01:42:02.590Z,7.00
2023-08-21T01:44:31.892Z,7.68
2023-08-21T01:46:58.997Z,7.30
2023-08-21T01:49:26.596Z,7.32
2023-08-21T01:51:53.750Z,7.88
2023-08-21T01:54:21.144Z,6.97
2023-08-21T01:56:48.791Z,7.72
2023-08-21T01:59:18.412Z,8.15
2023-08-21T02:01:46.358Z,7.05
2023-08-21T02:04:14.120Z,7.07
2023-08-21T02:06:41.228Z,7.03
2023-08-21T02:09:08.584Z,7.25
2023-08-21T02:11:36.214Z,6.55
2023-08-21T02:14:04.182Z,7.18
2023-08-21T02:16:31.358Z,7.40
2023-08-21T02:18:59.506Z,6.25
2023-08-21T02:21:26.590Z,7.40
2023-08-21T02:23:54.270Z,7.38
2023-08-21T02:26:21.467Z,7.28
2023-08-21T02:28:48.796Z,7.38
2023-08-21T02:31:16.181Z,5.88
2023-08-21T02:33:43.613Z,7.07
2023-08-21T02:36:11.251Z,7.00
2023-08-21T02:38:38.756Z,7.00
2023-08-21T02:41:05.835Z,6.82
2023-08-21T02:43:33.555Z,6.63
2023-08-21T02:46:00.704Z,7.10
2023-08-21T02:48:28.119Z,6.93
2023-08-21T02:50:55.768Z,6.30
2023-08-21T02:53:23.297Z,6.20
2023-08-21T02:55:50.344Z,7.15
2023-08-21T02:58:18.143Z,7.30
2023-08-21T03:00:45.288Z,7.03
2023-08-21T03:03:13.033Z,6.32
2023-08-21T03:05:40.263Z,7.03
2023-08-21T03:08:07.788Z,7.00
2023-08-21T03:10:35.799Z,6.88
2023-08-21T03:13:02.950Z,6.43
2023-08-21T03:15:30.505Z,6.35
2023-08-21T03:17:57.719Z,6.57
2023-08-21T03:20:25.059Z,6.72
2023-08-21T03:22:52.219Z,6.88
2023-08-21T03:25:19.415Z,6.53
2023-08-21T03:27:50.784Z,7.05
2023-08-21T03:30:18.421Z,7.45
2023-08-21T03:32:45.713Z,6.57
2023-08-21T03:35:13.149Z,6.75
2023-08-21T03:37:40.421Z,7.32
2023-08-21T03:40:10.623Z,7.93
2023-08-21T03:42:38.140Z,6.72
2023-08-21T03:45:06.381Z,6.85
2023-08-21T03:47:33.629Z,6.85
2023-08-21T03:50:05.764Z,7.38
2023-08-21T03:52:32.854Z,5.70
2023-08-21T03:55:00.258Z,6.68
2023-08-21T03:57:28.840Z,7.47
2023-08-21T03:59:56.619Z,6.00
2023-08-21T04:02:26.742Z,6.70
2023-08-21T04:04:54.960Z,6.32
2023-08-21T04:07:22.048Z,6.80
2023-08-21T04:09:49.206Z,6.25
2023-08-21T04:12:16.284Z,6.57
2023-08-21T04:14:43.519Z,6.47
2023-08-21T04:17:10.693Z,6.57
2023-08-21T04:19:38.579Z,6.65
2023-08-21T04:22:05.675Z,7.88
2023-08-21T04:24:32.915Z,6.82
2023-08-21T04:26:59.993Z,8.32
2023-08-21T04:29:27.164Z,7.15
2023-08-21T04:31:55.130Z,8.05
2023-08-21T04:34:22.285Z,8.13
2023-08-21T04:36:50.573Z,7.50
2023-08-21T04:39:18.292Z,7.25
2023-08-21T04:41:46.737Z,6.70
2023-08-21T04:44:13.965Z,7.63
2023-08-21T04:46:41.479Z,7.53
2023-08-21T04:49:08.735Z,7.43
2023-08-21T04:51:36.614Z,8.23
2023-08-21T04:54:04.953Z,8.70
2023-08-21T04:56:32.253Z,7.47
2023-08-21T04:59:01.631Z,7.43
2023-08-21T05:01:30.896Z,7.93
2023-08-21T05:04:00.329Z,7.85
2023-08-21T05:06:28.176Z,7.50
2023-08-21T05:08:56.110Z,6.60
2023-08-21T05:11:23.394Z,7.22
2023-08-21T05:13:51.105Z,7.38
2023-08-21T05:16:21.983Z,6.97
2023-08-21T05:18:49.757Z,7.40
2023-08-21T05:21:18.068Z,6.80
2023-08-21T05:23:45.580Z,7.35
2023-08-21T05:26:12.768Z,7.40
2023-08-21T05:28:40.080Z,8.13
2023-08-21T05:31:07.345Z,7.70
2023-08-21T05:33:46.778Z,7.22
2023-08-21T05:36:16.168Z,7.50
2023-08-21T05:38:43.984Z,7.65
2023-08-21T05:41:11.872Z,7.75
2023-08-21T05:43:40.883Z,7.25
2023-08-21T05:46:08.486Z,7.25
2023-08-21T05:48:35.970Z,7.35
2023-08-21T05:51:03.276Z,7.53
2023-08-21T05:53:30.478Z,7.85
2023-08-21T05:55:57.761Z,7.88
2023-08-21T05:58:25.033Z,7.03
2023-08-21T06:00:52.578Z,8.02
2023-08-21T06:03:19.940Z,8.23
2023-08-21T06:06:05.491Z,8.10
2023-08-21T06:08:33.137Z,7.57
2023-08-21T06:11:00.320Z,8.18
2023-08-21T06:13:28.414Z,7.97
2023-08-21T06:15:56.796Z,8.23
2023-08-21T06:18:26.935Z,8.23
2023-08-21T06:20:54.967Z,7.80
2023-08-21T06:23:22.785Z,7.95
2023-08-21T06:25:50.724Z,8.15
2023-08-21T06:28:19.582Z,8.25
2023-08-21T06:30:46.814Z,7.40
2023-08-21T06:33:14.445Z,7.72
2023-08-21T06:35:41.635Z,8.15
2023-08-21T06:38:08.797Z,8.88
2023-08-21T06:40:36.852Z,9.23
2023-08-21T06:43:07.158Z,9.13
2023-08-21T06:45:35.371Z,7.95
2023-08-21T06:48:04.689Z,8.93
2023-08-21T06:50:32.336Z,8.05
2023-08-21T06:52:59.726Z,7.10
2023-08-21T06:55:26.772Z,7.57
2023-08-21T06:57:53.880Z,7.88
2023-08-21T07:00:21.025Z,7.97
2023-08-21T07:02:48.305Z,7.45
2023-08-21T07:05:15.504Z,8.23
2023-08-21T07:07:42.608Z,7.85
2023-08-21T07:10:10.357Z,7.28
2023-08-21T07:12:38.066Z,6.63
2023-08-21T07:15:05.965Z,6.43
2023-08-21T07:17:33.020Z,7.05
2023-08-21T07:20:00.272Z,6.45
2023-08-21T07:22:27.472Z,7.63
2023-08-21T07:24:54.723Z,7.95
2023-08-21T07:27:21.877Z,7.20
2023-08-21T07:29:49.026Z,7.28
2023-08-21T07:32:16.192Z,6.15
2023-08-21T07:34:43.319Z,7.22
2023-08-21T07:37:10.791Z,6.60
2023-08-21T07:39:38.014Z,6.60
2023-08-21T07:42:05.458Z,6.80
2023-08-21T07:44:32.887Z,6.72
2023-08-21T07:47:00.136Z,6.40
2023-08-21T07:49:27.243Z,6.53
2023-08-21T07:51:54.389Z,6.13
2023-08-21T07:54:21.651Z,6.57
2023-08-21T07:56:48.761Z,7.00
2023-08-21T07:59:15.898Z,6.45
2023-08-21T08:01:43.231Z,6.28
2023-08-21T08:04:10.448Z,6.13
2023-08-21T08:06:37.997Z,6.22
2023-08-21T08:09:05.253Z,6.50
2023-08-21T08:11:32.408Z,6.97
2023-08-21T08:13:59.676Z,6.45
2023-08-21T08:16:26.908Z,6.50
2023-08-21T08:18:54.073Z,6.30
2023-08-21T08:21:21.231Z,5.82
2023-08-21T08:23:48.411Z,6.35
2023-08-21T08:26:15.613Z,5.90
2023-08-21T08:28:42.718Z,6.10
2023-08-21T08:31:19.387Z,6.07
2023-08-21T08:33:46.716Z,5.38
2023-08-21T08:36:13.822Z,5.88
2023-08-21T08:38:41.090Z,5.70
2023-08-21T08:41:16.072Z,6.13
2023-08-21T08:43:43.851Z,5.75
2023-08-21T08:46:11.814Z,5.18
2023-08-21T08:48:39.431Z,5.45
2023-08-21T08:51:06.764Z,5.30
2023-08-21T08:53:35.357Z,5.20
2023-08-21T08:56:02.588Z,5.50
2023-08-21T08:58:30.609Z,5.03
2023-08-21T09:00:57.828Z,5.57
2023-08-21T09:03:25.479Z,5.15
2023-08-21T09:05:52.825Z,5.63
2023-08-21T09:08:21.022Z,5.13
2023-08-21T09:10:48.536Z,4.47
2023-08-21T09:13:18.171Z,4.80
2023-08-21T09:15:48.706Z,5.10
2023-08-21T09:18:17.376Z,5.38
2023-08-21T09:20:45.188Z,5.93
2023-08-21T09:23:16.351Z,5.40
2023-08-21T09:25:48.185Z,5.00
2023-08-21T09:28:16.068Z,4.60
2023-08-21T09:30:53.851Z,4.70
2023-08-21T09:33:24.330Z,4.22
2023-08-21T09:35:55.887Z,4.60
2023-08-21T09:38:23.849Z,5.10
2023-08-21T09:40:56.282Z,4.80
2023-08-21T09:43:26.912Z,4.70
2023-08-21T09:45:59.492Z,5.85
2023-08-21T09:48:31.075Z,5.53
2023-08-21T09:50:58.565Z,4.38
2023-08-21T09:53:25.699Z,4.95
2023-08-21T09:55:57.016Z,5.15
2023-08-21T09:58:24.465Z,4.40
2023-08-21T10:00:53.230Z,5.03
2023-08-21T10:03:22.940Z,4.55
2023-08-21T10:05:50.790Z,4.72
2023-08-21T10:08:22.678Z,5.85
2023-08-21T10:10:49.875Z,5.30
2023-08-21T10:13:17.627Z,4.80
2023-08-21T10:15:48.599Z,4.10
2023-08-21T10:18:30.463Z,4.05
2023-08-21T10:20:57.670Z,4.78
2023-08-21T10:23:27.587Z,4.53
2023-08-21T10:26:02.698Z,4.80
2023-08-21T10:28:51.017Z,4.43
2023-08-21T10:31:28.124Z,5.20
2023-08-21T10:33:56.284Z,5.10
2023-08-21T10:36:45.505Z,4.65
2023-08-21T10:39:27.600Z,4.78
2023-08-21T10:41:56.747Z,4.57
2023-08-21T10:44:36.009Z,4.90
2023-08-21T10:47:39.190Z,4.60
2023-08-21T10:50:08.890Z,5.40
2023-08-21T10:52:44.636Z,4.82
2023-08-21T10:55:13.517Z,4.30
2023-08-21T10:57:42.714Z,4.57
2023-08-21T11:00:16.113Z,4.75
2023-08-21T11:02:48.726Z,4.88
2023-08-21T11:05:17.736Z,5.45
2023-08-21T11:07:49.857Z,4.70
2023-08-21T11:10:19.591Z,4.30
2023-08-21T11:12:57.914Z,5.28
2023-08-21T11:15:27.115Z,4.70
2023-08-21T11:18:00.862Z,4.30
2023-08-21T11:20:36.319Z,4.78
2023-08-21T11:23:09.088Z,5.38
2023-08-21T11:25:39.867Z,4.45
2023-08-21T11:28:08.527Z,4.93
2023-08-21T11:30:36.272Z,4.53
2023-08-21T11:33:14.754Z,4.40
2023-08-21T11:35:43.225Z,4.50
2023-08-21T11:38:23.893Z,4.53
2023-08-21T11:40:59.378Z,4.45
2023-08-21T11:43:43.742Z,5.13
2023-08-21T11:46:12.582Z,4.32
2023-08-21T11:48:42.148Z,4.70
2023-08-21T11:51:10.080Z,4.28
2023-08-21T11:53:37.577Z,4.38
2023-08-21T11:56:11.531Z,3.92
2023-08-21T11:58:48.048Z,4.20
2023-08-21T12:01:19.890Z,4.38
2023-08-21T12:03:47.711Z,4.75
2023-08-21T12:06:15.721Z,4.03
2023-08-21T12:08:43.388Z,4.03
2023-08-21T12:11:11.145Z,4.43
2023-08-21T12:13:38.616Z,5.07
2023-08-21T12:16:06.245Z,4.70
2023-08-21T12:18:34.200Z,4.82
2023-08-21T12:21:01.791Z,5.22
2023-08-21T12:23:30.000Z,4.90
2023-08-21T12:25:57.294Z,5.68
2023-08-21T12:28:24.625Z,4.70
2023-08-21T12:30:51.751Z,4.78
2023-08-21T12:33:24.310Z,4.00
2023-08-21T12:35:52.850Z,4.60
2023-08-21T12:38:20.423Z,4.40
2023-08-21T12:40:48.216Z,4.30
2023-08-21T12:43:15.584Z,4.85
2023-08-21T12:45:43.256Z,5.18
2023-08-21T12:48:10.401Z,4.18
2023-08-21T12:50:37.846Z,4.50
2023-08-21T12:53:05.437Z,5.00
2023-08-21T12:55:32.939Z,4.50
2023-08-21T12:58:00.230Z,4.47
2023-08-21T13:00:28.352Z,4.28
2023-08-21T13:02:55.563Z,4.30
2023-08-21T13:05:23.174Z,4.57
2023-08-21T13:07:50.447Z,4.43
2023-08-21T13:10:17.843Z,4.43
2023-08-21T13:12:45.276Z,4.40
2023-08-21T13:15:13.234Z,4.63
2023-08-21T13:17:40.426Z,4.53
2023-08-21T13:20:10.124Z,3.83
2023-08-21T13:22:51.176Z,3.95
2023-08-21T13:25:24.175Z,4.45
2023-08-21T13:27:53.456Z,5.30
2023-08-21T13:30:21.637Z,4.88
2023-08-21T13:32:50.136Z,4.95
2023-08-21T13:35:18.296Z,3.60
2023-08-21T13:37:46.020Z,4.18
2023-08-21T13:40:14.353Z,4.40
2023-08-21T13:42:43.155Z,4.20
2023-08-21T13:45:15.354Z,4.13
2023-08-21T13:47:48.892Z,4.30
2023-08-21T13:50:18.732Z,4.43
2023-08-21T13:52:48.296Z,4.03
2023-08-21T13:55:16.809Z,4.30
2023-08-21T13:57:45.673Z,3.95
2023-08-21T14:00:13.804Z,4.28
2023-08-21T14:02:43.648Z,3.88
2023-08-21T14:05:12.439Z,4.50
2023-08-21T14:07:41.426Z,4.00
2023-08-21T14:10:09.990Z,4.40
2023-08-21T14:12:40.593Z,3.97
2023-08-21T14:15:10.695Z,4.43
2023-08-21T14:17:38.524Z,4.70
2023-08-21T14:20:08.636Z,3.80
2023-08-21T14:22:36.135Z,4.45
2023-08-21T14:25:05.859Z,3.60
2023-08-21T14:27:33.503Z,4.22
2023-08-21T14:30:01.219Z,3.75
2023-08-21T14:32:28.310Z,4.10
2023-08-21T14:34:55.929Z,4.10
2023-08-21T14:37:25.087Z,3.80
2023-08-21T14:39:52.802Z,4.20
2023-08-21T14:42:20.695Z,3.75
2023-08-21T14:44:48.201Z,3.78
2023-08-21T14:47:15.322Z,3.17
2023-08-21T14:49:43.220Z,3.72
2023-08-21T14:52:10.355Z,4.07
2023-08-21T14:54:37.931Z,4.55
2023-08-21T14:57:05.630Z,3.58
2023-08-21T14:59:33.084Z,4.00
2023-08-21T15:02:00.258Z,3.35
2023-08-21T15:04:27.558Z,3.63
2023-08-21T15:06:54.697Z,4.18
2023-08-21T15:09:22.256Z,4.55
2023-08-21T15:11:49.391Z,4.28
2023-08-21T15:14:16.644Z,4.85
2023-08-21T15:16:43.891Z,5.70
2023-08-21T15:19:11.045Z,6.03
2023-08-21T15:21:40.165Z,5.25
2023-08-21T15:24:09.018Z,5.97
2023-08-21T15:26:36.196Z,5.35
2023-08-21T15:29:04.770Z,5.50
2023-08-21T15:31:31.924Z,5.07
2023-08-21T15:33:59.498Z,6.30
2023-08-21T15:36:26.666Z,5.78
2023-08-21T15:38:54.764Z,6.07
2023-08-21T15:41:21.988Z,4.90
2023-08-21T15:43:49.870Z,5.60
2023-08-21T15:46:17.032Z,5.32
2023-08-21T15:48:44.798Z,6.00
2023-08-21T15:51:12.161Z,5.70
2023-08-21T15:53:39.871Z,5.70
2023-08-21T15:56:07.437Z,5.55
2023-08-21T15:58:35.449Z,8.32
2023-08-21T16:01:02.530Z,6.25
2023-08-21T16:03:30.113Z,5.93
2023-08-21T16:05:57.611Z,6.20
2023-08-21T16:08:25.187Z,6.20
2023-08-21T16:10:52.317Z,5.90
2023-08-21T16:13:20.311Z,6.70
2023-08-21T16:15:47.512Z,7.03
2023-08-21T16:18:15.143Z,5.97
2023-08-21T16:20:42.544Z,5.90
2023-08-21T16:23:09.921Z,6.32
2023-08-21T16:25:37.511Z,6.38
2023-08-21T16:28:05.432Z,6.53
2023-08-21T16:30:32.693Z,5.70
2023-08-21T16:33:00.519Z,6.13
2023-08-21T16:35:27.680Z,5.68
2023-08-21T16:37:55.408Z,6.00
2023-08-21T16:40:25.128Z,5.80
2023-08-21T16:42:52.623Z,5.78
2023-08-21T16:45:19.834Z,6.47
2023-08-21T16:47:48.084Z,6.07
2023-08-21T16:50:15.732Z,5.70
2023-08-21T16:52:43.361Z,6.20
2023-08-21T16:55:11.494Z,6.40
2023-08-21T16:57:39.361Z,6.10
2023-08-21T17:00:13.678Z,5.78
2023-08-21T17:02:41.951Z,5.72
2023-08-21T17:05:09.777Z,5.70
2023-08-21T17:07:40.619Z,5.95
2023-08-21T17:10:10.930Z,5.72
2023-08-21T17:12:38.582Z,6.50
2023-08-21T17:15:07.596Z,6.25
2023-08-21T17:17:35.407Z,6.28
2023-08-21T17:20:04.263Z,5.38
2023-08-21T17:22:31.955Z,5.70
2023-08-21T17:25:13.586Z,6.72
2023-08-21T17:27:43.221Z,6.25
2023-08-21T17:30:11.292Z,6.03
2023-08-21T17:32:39.264Z,6.22
2023-08-21T17:35:07.843Z,6.40
2023-08-21T17:37:35.240Z,6.97
2023-08-21T17:40:03.645Z,7.65
2023-08-21T17:42:30.766Z,6.20
2023-08-21T17:44:58.318Z,6.40
2023-08-21T17:47:26.270Z,6.55
2023-08-21T17:49:53.509Z,6.53
2023-08-21T17:52:21.037Z,6.80
2023-08-21T17:54:48.394Z,6.47
2023-08-21T17:57:16.338Z,6.15
2023-08-21T17:59:43.968Z,6.63
2023-08-21T18:02:15.587Z,7.75
2023-08-21T18:04:53.550Z,5.60
2023-08-21T18:07:21.582Z,6.85
2023-08-21T18:09:48.670Z,6.90
2023-08-21T18:12:15.735Z,6.97
2023-08-21T18:14:42.972Z,7.22
2023-08-21T18:17:16.830Z,6.30
2023-08-21T18:19:47.547Z,6.18
2023-08-21T18:22:15.436Z,6.38
2023-08-21T18:24:43.475Z,6.25
2023-08-21T18:27:11.097Z,6.30
2023-08-21T18:29:39.851Z,6.22
2023-08-21T18:32:11.048Z,6.18
2023-08-21T18:34:41.388Z,6.65
2023-08-21T18:37:10.315Z,6.18
2023-08-21T18:39:37.536Z,7.13
2023-08-21T18:42:05.439Z,6.50
2023-08-21T18:44:32.637Z,6.68
2023-08-21T18:47:00.303Z,6.63
2023-08-21T18:49:27.572Z,6.55
2023-08-21T18:51:55.132Z,6.60
2023-08-21T18:54:25.275Z,6.75
2023-08-21T18:56:53.527Z,6.60
2023-08-21T18:59:20.946Z,7.32
2023-08-21T19:01:48.342Z,7.40
2023-08-21T19:04:15.548Z,7.63
2023-08-21T19:06:51.926Z,7.88
2023-08-21T19:09:23.389Z,7.90
2023-08-21T19:11:50.508Z,7.38
2023-08-21T19:14:18.431Z,7.95
2023-08-21T19:16:46.246Z,6.75
2023-08-21T19:19:13.367Z,7.38
2023-08-21T19:21:40.564Z,7.78
2023-08-21T19:24:08.162Z,7.40
2023-08-21T19:26:35.373Z,6.45
2023-08-21T19:29:02.528Z,7.28
2023-08-21T19:31:29.704Z,7.93
2023-08-21T19:33:57.704Z,9.30
2023-08-21T19:36:24.839Z,8.38
2023-08-21T19:38:53.376Z,9.27
2023-08-21T19:41:21.585Z,8.38
2023-08-21T19:43:48.757Z,8.38
2023-08-21T19:46:16.088Z,8.55
2023-08-21T19:48:43.324Z,8.82
2023-08-21T19:51:12.166Z,8.45
2023-08-21T19:53:39.369Z,9.02
2023-08-21T19:56:06.551Z,9.30
2023-08-21T19:58:34.055Z,7.43
2023-08-21T20:01:01.276Z,8.32
2023-08-21T20:03:28.509Z,8.38
2023-08-21T20:06:06.246Z,7.22
2023-08-21T20:08:33.905Z,7.72
2023-08-21T20:11:04.099Z,7.43
2023-08-21T20:13:32.076Z,8.07
2023-08-21T20:15:59.219Z,7.88
2023-08-21T20:18:26.735Z,7.47
2023-08-21T20:20:55.264Z,7.82
2023-08-21T20:23:22.884Z,8.10
2023-08-21T20:25:50.574Z,8.45
2023-08-21T20:28:19.894Z,8.90
2023-08-21T20:30:47.249Z,8.65
2023-08-21T20:33:14.562Z,8.60
2023-08-21T20:35:41.985Z,8.65
2023-08-21T20:38:09.563Z,8.85
2023-08-21T20:40:37.192Z,8.43
2023-08-21T20:43:04.932Z,8.65
2023-08-21T20:45:33.096Z,8.52
2023-08-21T20:48:00.388Z,9.65
2023-08-21T20:50:28.289Z,8.43
2023-08-21T20:52:55.542Z,9.75
2023-08-21T20:55:22.749Z,8.88
2023-08-21T20:57:50.788Z,8.35
2023-08-21T21:00:17.950Z,8.40
2023-08-21T21:02:45.434Z,8.65
2023-08-21T21:05:12.829Z,8.52
2023-08-21T21:07:40.322Z,8.73
2023-08-21T21:10:09.154Z,9.70
2023-08-21T21:12:36.325Z,8.65
2023-08-21T21:15:04.254Z,8.98
2023-08-21T21:17:31.586Z,8.95
2023-08-21T21:19:58.813Z,9.73
2023-08-21T21:22:26.006Z,8.82
2023-08-21T21:24:53.231Z,13.07
2023-08-21T21:27:23.757Z,8.77
2023-08-21T21:29:52.878Z,9.50
2023-08-21T21:32:21.313Z,9.05
2023-08-21T21:34:48.820Z,9.27
2023-08-21T21:37:15.958Z,9.32
2023-08-21T21:39:43.182Z,9.23
2023-08-21T21:42:10.634Z,9.45
2023-08-21T21:44:38.197Z,8.70
2023-08-21T21:47:05.451Z,9.63
2023-08-21T21:49:32.654Z,10.27
2023-08-21T21:51:59.958Z,9.63
2023-08-21T21:54:27.152Z,9.75
2023-08-21T21:56:54.246Z,9.43
2023-08-21T21:59:21.779Z,8.75
2023-08-21T22:01:49.436Z,10.02
2023-08-21T22:04:16.732Z,10.40
2023-08-21T22:06:44.041Z,9.25
2023-08-21T22:09:11.369Z,9.77
2023-08-21T22:11:38.812Z,9.95
2023-08-21T22:14:06.669Z,10.13
2023-08-21T22:16:33.966Z,9.98
2023-08-21T22:19:01.142Z,9.40
2023-08-21T22:21:28.434Z,9.60
2023-08-21T22:23:55.612Z,9.57
2023-08-21T22:26:22.928Z,10.35
2023-08-21T22:28:52.946Z,10.38
2023-08-21T22:31:28.247Z,10.27
2023-08-21T22:33:59.313Z,9.77
2023-08-21T22:36:26.421Z,9.75
2023-08-21T22:38:54.679Z,11.85
2023-08-21T22:41:21.807Z,9.82
2023-08-21T22:43:48.908Z,9.65
2023-08-21T22:46:16.253Z,10.48
2023-08-21T22:48:43.472Z,9.90
2023-08-21T22:51:11.868Z,9.68
2023-08-21T22:53:39.095Z,9.43
2023-08-21T22:56:06.249Z,9.85
2023-08-21T22:58:33.705Z,10.60
2023-08-21T23:01:01.202Z,10.70
2023-08-21T23:03:28.410Z,10.38
2023-08-21T23:05:57.247Z,10.35
2023-08-21T23:08:25.813Z,11.00
2023-08-21T23:10:54.783Z,11.48
2023-08-21T23:13:22.259Z,12.77
2023-08-21T23:15:51.243Z,10.73
2023-08-21T23:18:22.020Z,11.25
2023-08-21T23:21:01.411Z,11.10
2023-08-21T23:23:29.250Z,11.73
2023-08-21T23:25:58.276Z,11.73
2023-08-21T23:28:25.897Z,12.55
2023-08-21T23:30:54.857Z,11.27
2023-08-21T23:33:23.149Z,12.45
2023-08-21T23:35:51.155Z,11.15
2023-08-21T23:38:19.268Z,12.25
2023-08-21T23:40:46.450Z,11.80
2023-08-21T23:43:13.626Z,11.38
2023-08-21T23:45:40.752Z,11.35
2023-08-21T23:48:08.280Z,11.32
2023-08-21T23:50:36.160Z,11.82
2023-08-21T23:53:05.030Z,12.75
2023-08-21T23:55:38.312Z,11.57
2023-08-21T23:58:06.355Z,12.25
